Time;durP1;ratioP1;P1;durP2;ratioP2;P2;SDS_P1;SDS_P2;PMS_P1;PMS_P2;Temp;Humidity;BMP_temperature;BMP_pressure;BME280_temperature;BME280_humidity;BME280_pressure;Samples;Min_cycle;Max_cycle;Signal;HPM_P1;HPM_P2
2023/04/29 00:01:03;;;;;;;;;;;;;;;;;;5083809;28;19912;-74
2023/04/29 00:03:49;;;;;;;;;;;;;;;;;;5085185;28;19928;-74
2023/04/29 00:06:36;;;;;;;;;;;;;;;;;;5083560;28;20376;-76
2023/04/29 00:09:22;;;;;;;;;;;;;;;;;;5078498;28;19927;-75
2023/04/29 00:12:09;;;;;;;;;;;;;;;;;;5074429;28;20303;-75
2023/04/29 00:14:56;;;;;;;;;;;;;;;;;;5085038;28;19916;-76
2023/04/29 00:17:44;;;;;;;;;;;;;;;;;;5077848;28;19916;-75
2023/04/29 00:20:30;;;;;;;;;;;;;;;;;;5088723;28;19924;-75
2023/04/29 00:23:17;;;;;;;;;;;;;;;;;;5078506;28;19930;-76
2023/04/29 00:26:04;;;;;;;;;;;;;;;;;;5068826;28;19924;-75
2023/04/29 00:28:50;;;;;;;;;;;;;;;;;;5084143;28;20283;-75
2023/04/29 00:31:37;;;;;;;;;;;;;;;;;;5078460;28;19916;-75
2023/04/29 00:34:23;;;;;;;;;;;;;;;;;;5090608;28;19924;-76
2023/04/29 00:37:10;;;;;;;;;;;;;;;;;;5081303;28;19923;-76
2023/04/29 00:39:56;;;;;;;;;;;;;;;;;;5083643;28;19916;-77
2023/04/29 00:42:43;;;;;;;;;;;;;;;;;;5068158;28;19931;-76
2023/04/29 00:45:29;;;;;;;;;;;;;;;;;;5081756;28;20392;-76
2023/04/29 00:48:16;;;;;;;;;;;;;;;;;;5079217;28;19916;-75
2023/04/29 00:51:02;;;;;;;;;;;;;;;;;;5075158;28;19920;-75
2023/04/29 00:53:49;;;;;;;;;;;;;;;;;;5085394;28;19939;-75
2023/04/29 00:56:36;;;;;;;;;;;;;;;;;;5071147;28;19924;-74
2023/04/29 00:59:22;;;;;;;;;;;;;;;;;;5090213;28;19926;-75
2023/04/29 01:02:09;;;;;;;;;;;;;;;;;;5072581;28;20354;-75
2023/04/29 01:04:56;;;;;;;;;;;;;;;;;;5077663;28;19920;-75
2023/04/29 01:07:42;;;;;;;;;;;;;;;;;;5075142;28;19923;-75
2023/04/29 01:10:29;;;;;;;;;;;;;;;;;;5076473;28;19921;-74
2023/04/29 01:13:15;;;;;;;;;;;;;;;;;;5083847;28;19927;-76
2023/04/29 01:16:05;;;;;;;;;;;;;;;;;;5082418;28;19916;-75
2023/04/29 01:18:51;;;;;;;;;;;;;;;;;;5075421;28;19928;-75
2023/04/29 01:21:38;;;;;;;;;;;;;;;;;;5090979;28;19916;-76
2023/04/29 01:24:24;;;;;;;;;;;;;;;;;;5088070;28;19924;-75
2023/04/29 01:27:11;;;;;;;;;;;;;;;;;;5078266;28;20386;-75
2023/04/29 01:29:58;;;;;;;;;;;;;;;;;;5080770;28;20436;-75
2023/04/29 01:32:44;;;;;;;;;;;;;;;;;;5080305;28;20072;-75
2023/04/29 01:35:30;;;;;;;;;;;;;;;;;;5079598;28;19963;-75
2023/04/29 01:38:17;;;;;;;;;;;;;;;;;;5091570;28;19927;-75
2023/04/29 01:41:04;;;;;;;;;;;;;;;;;;5082942;28;19939;-74
2023/04/29 01:43:51;;;;;;;;;;;;;;;;;;5079148;28;19924;-75
2023/04/29 01:46:37;;;;;;;;;;;;;;;;;;5077867;28;19931;-75
2023/04/29 01:49:24;;;;;;;;;;;;;;;;;;5082812;28;20399;-75
2023/04/29 01:52:11;;;;;;;;;;;;;;;;;;5091146;28;19923;-74
2023/04/29 01:54:57;;;;;;;;;;;;;;;;;;5083359;28;20315;-73
2023/04/29 01:57:44;;;;;;;;;;;;;;;;;;5073823;28;19923;-75
2023/04/29 02:00:30;;;;;;;;;;;;;;;;;;5079244;28;19958;-74
2023/04/29 02:03:17;;;;;;;;;;;;;;;;;;5080794;28;19928;-75
2023/04/29 02:06:05;;;;;;;;;;;;;;;;;;5073569;28;19917;-75
2023/04/29 02:08:52;;;;;;;;;;;;;;;;;;5087881;28;19926;-75
2023/04/29 02:11:38;;;;;;;;;;;;;;;;;;5083534;28;19916;-75
2023/04/29 02:14:25;;;;;;;;;;;;;;;;;;5092168;28;19916;-75
2023/04/29 02:17:11;;;;;;;;;;;;;;;;;;5085458;28;20510;-75
2023/04/29 02:19:58;;;;;;;;;;;;;;;;;;5091950;28;19920;-74
2023/04/29 02:22:44;;;;;;;;;;;;;;;;;;5078411;28;19920;-75
2023/04/29 02:25:31;;;;;;;;;;;;;;;;;;5088932;28;20296;-74
2023/04/29 02:28:17;;;;;;;;;;;;;;;;;;5083186;28;20018;-74
2023/04/29 02:31:04;;;;;;;;;;;;;;;;;;5065834;28;20443;-74
2023/04/29 02:33:50;;;;;;;;;;;;;;;;;;5065943;28;19925;-75
2023/04/29 02:36:37;;;;;;;;;;;;;;;;;;5064715;28;19923;-75
2023/04/29 02:39:23;;;;;;;;;;;;;;;;;;5065721;28;19921;-74
2023/04/29 02:42:10;;;;;;;;;;;;;;;;;;5057834;28;19920;-74
2023/04/29 02:44:57;;;;;;;;;;;;;;;;;;5064729;28;19935;-74
2023/04/29 02:47:43;;;;;;;;;;;;;;;;;;5064901;28;19928;-74
2023/04/29 02:50:30;;;;;;;;;;;;;;;;;;5066538;28;19920;-74
2023/04/29 02:53:16;;;;;;;;;;;;;;;;;;5061683;28;19916;-74
2023/04/29 02:56:03;;;;;;;;;;;;;;;;;;5064171;28;20300;-74
2023/04/29 02:58:49;;;;;;;;;;;;;;;;;;5065134;28;19921;-74
2023/04/29 03:01:37;;;;;;;;;;;;;;;;;;5061431;28;19927;-74
2023/04/29 03:04:24;;;;;;;;;;;;;;;;;;5061133;28;20344;-75
2023/04/29 03:07:10;;;;;;;;;;;;;;;;;;5061906;28;19921;-74
2023/04/29 03:09:57;;;;;;;;;;;;;;;;;;5058806;28;19921;-74
2023/04/29 03:12:44;;;;;;;;;;;;;;;;;;5064885;28;20463;-74
2023/04/29 03:15:30;;;;;;;;;;;;;;;;;;5065286;28;19916;-73
2023/04/29 03:18:17;;;;;;;;;;;;;;;;;;5064951;28;20396;-73
2023/04/29 03:21:03;;;;;;;;;;;;;;;;;;5060330;28;19916;-75
2023/04/29 03:23:50;;;;;;;;;;;;;;;;;;5058937;28;20300;-75
2023/04/29 03:26:36;;;;;;;;;;;;;;;;;;5061871;28;19927;-76
2023/04/29 03:29:23;;;;;;;;;;;;;;;;;;5047702;28;19927;-75
2023/04/29 03:32:09;;;;;;;;;;;;;;;;;;5061703;28;19920;-76
2023/04/29 03:34:56;;;;;;;;;;;;;;;;;;5063271;28;19943;-75
2023/04/29 03:37:43;;;;;;;;;;;;;;;;;;5058581;28;19916;-76
2023/04/29 03:40:29;;;;;;;;;;;;;;;;;;5050499;28;19920;-76
2023/04/29 03:43:16;;;;;;;;;;;;;;;;;;5055638;28;20332;-76
2023/04/29 03:46:02;;;;;;;;;;;;;;;;;;5070986;28;19931;-76
2023/04/29 03:48:50;;;;;;;;;;;;;;;;;;5062491;28;19917;-75
2023/04/29 03:51:37;;;;;;;;;;;;;;;;;;5058294;28;19924;-76
2023/04/29 03:54:24;;;;;;;;;;;;;;;;;;5066366;28;19920;-76
2023/04/29 03:57:10;;;;;;;;;;;;;;;;;;5062818;28;19924;-76
2023/04/29 03:59:57;;;;;;;;;;;;;;;;;;5062809;28;19925;-76
2023/04/29 04:02:44;;;;;;;;;;;;;;;;;;5060547;28;20474;-76
2023/04/29 04:05:30;;;;;;;;;;;;;;;;;;5061196;28;19920;-75
2023/04/29 04:08:17;;;;;;;;;;;;;;;;;;5061735;28;19924;-76
2023/04/29 04:11:03;;;;;;;;;;;;;;;;;;5060177;28;19920;-75
2023/04/29 04:13:50;;;;;;;;;;;;;;;;;;5056932;28;19920;-76
2023/04/29 04:16:37;;;;;;;;;;;;;;;;;;5062572;28;19954;-75
2023/04/29 04:19:23;;;;;;;;;;;;;;;;;;5047732;28;19925;-75
2023/04/29 04:22:10;;;;;;;;;;;;;;;;;;5057146;28;19924;-76
2023/04/29 04:24:57;;;;;;;;;;;;;;;;;;5046513;28;19927;-76
2023/04/29 04:27:43;;;;;;;;;;;;;;;;;;5059844;28;19920;-75
2023/04/29 04:30:30;;;;;;;;;;;;;;;;;;5063443;28;19931;-76
2023/04/29 04:33:16;;;;;;;;;;;;;;;;;;5063951;28;19924;-76
2023/04/29 04:36:03;;;;;;;;;;;;;;;;;;5084079;28;20384;-76
2023/04/29 04:38:49;;;;;;;;;;;;;;;;;;5075535;28;19928;-75
2023/04/29 04:41:36;;;;;;;;;;;;;;;;;;5080692;28;20374;-78
2023/04/29 04:44:22;;;;;;;;;;;;;;;;;;5085060;28;19927;-78
2023/04/29 04:47:10;;;;;;;;;;;;;;;;;;5082208;28;20982;-78
2023/04/29 04:49:56;;;;;;;;;;;;;;;;;;5082471;28;20477;-77
2023/04/29 04:52:43;;;;;;;;;;;;;;;;;;5083725;28;20029;-77
2023/04/29 04:55:30;;;;;;;;;;;;;;;;;;5087972;28;19946;-77
2023/04/29 04:58:17;;;;;;;;;;;;;;;;;;5082205;28;19920;-77
2023/04/29 05:01:03;;;;;;;;;;;;;;;;;;5067799;28;19920;-77
2023/04/29 05:03:50;;;;;;;;;;;;;;;;;;5084312;28;19932;-78
2023/04/29 05:06:36;;;;;;;;;;;;;;;;;;5078435;28;20403;-76
2023/04/29 05:09:23;;;;;;;;;;;;;;;;;;5083353;28;19954;-76
2023/04/29 05:12:09;;;;;;;;;;;;;;;;;;5078544;28;19928;-77
2023/04/29 05:14:56;;;;;;;;;;;;;;;;;;5079709;28;19924;-76
2023/04/29 05:17:42;;;;;;;;;;;;;;;;;;5065583;28;20661;-77
2023/04/29 05:20:29;;;;;;;;;;;;;;;;;;5075340;28;19920;-77
2023/04/29 05:23:15;;;;;;;;;;;;;;;;;;5066933;28;19983;-77
2023/04/29 05:26:02;;;;;;;;;;;;;;;;;;5085043;28;20014;-76
2023/04/29 05:28:48;;;;;;;;;;;;;;;;;;5080369;28;19927;-75
2023/04/29 05:31:35;;;;;;;;;;;;;;;;;;5092907;28;19920;-76
2023/04/29 05:34:21;;;;;;;;;;;;;;;;;;5065290;28;20404;-75
2023/04/29 05:37:08;;;;;;;;;;;;;;;;;;5065015;28;19920;-76
2023/04/29 05:39:54;;;;;;;;;;;;;;;;;;5066596;28;19942;-76
2023/04/29 05:42:41;;;;;;;;;;;;;;;;;;5064412;28;19940;-77
2023/04/29 05:45:28;;;;;;;;;;;;;;;;;;5063490;28;19921;-76
2023/04/29 05:48:14;;;;;;;;;;;;;;;;;;5067571;28;19916;-74
2023/04/29 05:51:01;;;;;;;;;;;;;;;;;;5063144;28;20315;-74
2023/04/29 05:53:47;;;;;;;;;;;;;;;;;;5066652;28;19916;-75
2023/04/29 05:56:34;;;;;;;;;;;;;;;;;;5064582;28;19920;-74
2023/04/29 05:59:20;;;;;;;;;;;;;;;;;;5067317;28;19917;-74
2023/04/29 06:02:07;;;;;;;;;;;;;;;;;;5072398;28;19921;-75
2023/04/29 06:04:53;;;;;;;;;;;;;;;;;;5065313;28;20655;-75
2023/04/29 06:07:40;;;;;;;;;;;;;;;;;;5064459;28;19932;-75
2023/04/29 06:10:26;;;;;;;;;;;;;;;;;;5067117;28;19923;-74
2023/04/29 06:13:13;;;;;;;;;;;;;;;;;;5058705;28;19924;-75
2023/04/29 06:15:59;;;;;;;;;;;;;;;;;;5057649;28;19936;-75
2023/04/29 06:18:46;;;;;;;;;;;;;;;;;;5063149;28;19923;-76
2023/04/29 06:21:32;;;;;;;;;;;;;;;;;;5065487;28;19932;-75
2023/04/29 06:24:19;;;;;;;;;;;;;;;;;;5054724;28;19928;-76
2023/04/29 06:27:05;;;;;;;;;;;;;;;;;;5060880;28;20378;-75
2023/04/29 06:29:52;;;;;;;;;;;;;;;;;;5058104;28;20423;-75
2023/04/29 06:32:39;;;;;;;;;;;;;;;;;;5062164;28;19920;-74
2023/04/29 06:35:25;;;;;;;;;;;;;;;;;;5066647;28;19928;-75
2023/04/29 06:38:12;;;;;;;;;;;;;;;;;;5062182;28;19917;-75
2023/04/29 06:40:59;;;;;;;;;;;;;;;;;;5062668;28;19950;-74
2023/04/29 06:43:46;;;;;;;;;;;;;;;;;;5061271;28;19928;-75
2023/04/29 06:46:33;;;;;;;;;;;;;;;;;;5058211;28;20195;-75
2023/04/29 06:49:19;;;;;;;;;;;;;;;;;;5057570;28;19916;-75
2023/04/29 06:52:06;;;;;;;;;;;;;;;;;;5059699;28;19931;-74
2023/04/29 06:54:52;;;;;;;;;;;;;;;;;;5058529;28;19945;-73
2023/04/29 06:57:38;;;;;;;;;;;;;;;;;;5061303;28;20304;-74
2023/04/29 07:00:25;;;;;;;;;;;;;;;;;;5057083;28;19921;-75
2023/04/29 07:03:12;;;;;;;;;;;;;;;;;;5066931;28;19924;-75
2023/04/29 07:05:58;;;;;;;;;;;;;;;;;;5061936;28;20899;-74
2023/04/29 07:08:45;;;;;;;;;;;;;;;;;;5067002;28;19946;-75
2023/04/29 07:11:31;;;;;;;;;;;;;;;;;;5058552;28;19920;-76
2023/04/29 07:14:18;;;;;;;;;;;;;;;;;;5061769;28;20560;-76
2023/04/29 07:17:05;;;;;;;;;;;;;;;;;;5059251;28;19920;-75
2023/04/29 07:19:52;;;;;;;;;;;;;;;;;;5059327;28;19934;-75
2023/04/29 07:22:38;;;;;;;;;;;;;;;;;;5062753;28;20462;-76
2023/04/29 07:25:25;;;;;;;;;;;;;;;;;;5064270;28;19924;-75
2023/04/29 07:28:11;;;;;;;;;;;;;;;;;;5059731;28;19928;-75
2023/04/29 07:30:58;;;;;;;;;;;;;;;;;;5062316;28;19920;-77
2023/04/29 07:33:45;;;;;;;;;;;;;;;;;;5066789;28;19929;-76
2023/04/29 07:36:32;;;;;;;;;;;;;;;;;;5083002;28;20648;-75
2023/04/29 07:39:18;;;;;;;;;;;;;;;;;;5085205;28;19954;-76
2023/04/29 07:42:04;;;;;;;;;;;;;;;;;;5085562;28;19920;-77
2023/04/29 07:44:51;;;;;;;;;;;;;;;;;;5079114;28;19928;-75
2023/04/29 07:47:37;;;;;;;;;;;;;;;;;;5076660;28;19921;-77
2023/04/29 07:50:24;;;;;;;;;;;;;;;;;;5088847;28;19934;-78
2023/04/29 07:53:11;;;;;;;;;;;;;;;;;;5079955;28;19920;-78
2023/04/29 07:55:57;;;;;;;;;;;;;;;;;;5083565;28;19920;-78
2023/04/29 07:58:44;;;;;;;;;;;;;;;;;;5081300;28;19920;-78
2023/04/29 08:01:31;;;;;;;;;;;;;;;;;;5082309;28;20370;-78
2023/04/29 08:04:18;;;;;;;;;;;;;;;;;;5067864;28;19929;-77
2023/04/29 08:07:05;;;;;;;;;;;;;;;;;;5081630;28;20411;-78
2023/04/29 08:09:51;;;;;;;;;;;;;;;;;;5078799;28;20582;-78
2023/04/29 08:12:38;;;;;;;;;;;;;;;;;;5078036;28;19920;-79
2023/04/29 08:15:24;;;;;;;;;;;;;;;;;;5083161;28;19920;-79
2023/04/29 08:18:11;;;;;;;;;;;;;;;;;;5079397;28;19923;-79
2023/04/29 08:20:57;;;;;;;;;;;;;;;;;;5085862;28;19912;-78
2023/04/29 08:23:44;;;;;;;;;;;;;;;;;;5087001;28;19930;-78
2023/04/29 08:26:30;;;;;;;;;;;;;;;;;;5066092;28;19931;-78
2023/04/29 08:29:17;;;;;;;;;;;;;;;;;;5077799;28;19924;-78
2023/04/29 08:32:03;;;;;;;;;;;;;;;;;;5080035;28;20285;-79
2023/04/29 08:34:50;;;;;;;;;;;;;;;;;;5070704;28;19939;-77
2023/04/29 08:37:37;;;;;;;;;;;;;;;;;;5078049;28;19943;-79
2023/04/29 08:40:23;;;;;;;;;;;;;;;;;;5083792;28;19924;-78
2023/04/29 08:43:10;;;;;;;;;;;;;;;;;;5075804;28;20395;-78
2023/04/29 08:45:56;;;;;;;;;;;;;;;;;;5087142;28;19956;-79
2023/04/29 08:48:43;;;;;;;;;;;;;;;;;;5083825;28;19923;-77
2023/04/29 08:51:31;;;;;;;;;;;;;;;;;;5076868;28;19927;-78
2023/04/29 08:54:17;;;;;;;;;;;;;;;;;;5063675;28;19920;-79
2023/04/29 08:57:04;;;;;;;;;;;;;;;;;;5058115;28;20654;-78
2023/04/29 08:59:50;;;;;;;;;;;;;;;;;;5070428;28;20014;-77
2023/04/29 09:02:37;;;;;;;;;;;;;;;;;;5077729;28;20238;-78
2023/04/29 09:05:24;;;;;;;;;;;;;;;;;;5090024;28;20588;-76
2023/04/29 09:08:11;;;;;;;;;;;;;;;;;;5081297;28;19923;-77
2023/04/29 09:10:57;;;;;;;;;;;;;;;;;;5074620;28;19927;-77
2023/04/29 09:13:44;;;;;;;;;;;;;;;;;;5074662;28;19927;-77
2023/04/29 09:16:30;;;;;;;;;;;;;;;;;;5089957;28;19942;-77
2023/04/29 09:19:17;;;;;;;;;;;;;;;;;;5065923;28;19920;-77
2023/04/29 09:22:03;;;;;;;;;;;;;;;;;;5081189;28;19916;-80
2023/04/29 09:24:50;;;;;;;;;;;;;;;;;;5080268;28;20290;-78
2023/04/29 09:27:36;;;;;;;;;;;;;;;;;;5082024;28;19916;-76
2023/04/29 09:30:23;;;;;;;;;;;;;;;;;;5086072;28;20562;-75
2023/04/29 09:33:09;;;;;;;;;;;;;;;;;;5073438;28;19931;-77
2023/04/29 09:35:56;;;;;;;;;;;;;;;;;;5062279;28;19924;-75
2023/04/29 09:38:42;;;;;;;;;;;;;;;;;;5061411;28;19947;-76
2023/04/29 09:41:29;;;;;;;;;;;;;;;;;;5065140;28;19928;-75
2023/04/29 09:44:16;;;;;;;;;;;;;;;;;;5060772;28;19925;-75
2023/04/29 09:47:02;;;;;;;;;;;;;;;;;;5057614;28;19921;-75
2023/04/29 09:49:49;;;;;;;;;;;;;;;;;;5058480;28;19928;-75
2023/04/29 09:52:35;;;;;;;;;;;;;;;;;;5057114;28;20304;-76
2023/04/29 09:55:22;;;;;;;;;;;;;;;;;;5046180;28;19928;-76
2023/04/29 09:58:08;;;;;;;;;;;;;;;;;;5054711;28;19927;-76
2023/04/29 10:00:55;;;;;;;;;;;;;;;;;;5062258;28;19917;-76
2023/04/29 10:03:41;;;;;;;;;;;;;;;;;;5061119;28;20409;-75
2023/04/29 10:06:28;;;;;;;;;;;;;;;;;;5061723;28;19943;-75
2023/04/29 10:09:15;;;;;;;;;;;;;;;;;;5039636;28;20390;-74
2023/04/29 10:12:01;;;;;;;;;;;;;;;;;;5061995;28;20372;-76
2023/04/29 10:14:48;;;;;;;;;;;;;;;;;;5062168;28;19923;-75
2023/04/29 10:17:34;;;;;;;;;;;;;;;;;;5065530;28;20351;-75
2023/04/29 10:20:21;;;;;;;;;;;;;;;;;;5061058;28;19924;-75
2023/04/29 10:23:07;;;;;;;;;;;;;;;;;;5066901;28;20414;-76
2023/04/29 10:25:53;;;;;;;;;;;;;;;;;;5074946;28;20040;-77
2023/04/29 10:28:40;;;;;;;;;;;;;;;;;;5066183;28;20538;-75
2023/04/29 10:31:26;;;;;;;;;;;;;;;;;;5062229;28;19917;-75
2023/04/29 10:34:13;;;;;;;;;;;;;;;;;;5060188;28;19929;-75
2023/04/29 10:37:00;;;;;;;;;;;;;;;;;;5060554;28;19944;-76
2023/04/29 10:39:46;;;;;;;;;;;;;;;;;;5067735;28;19916;-75
2023/04/29 10:42:33;;;;;;;;;;;;;;;;;;5060011;28;19924;-75
2023/04/29 10:45:19;;;;;;;;;;;;;;;;;;5055220;28;19928;-75
2023/04/29 10:48:07;;;;;;;;;;;;;;;;;;5049411;28;19921;-74
2023/04/29 10:50:54;;;;;;;;;;;;;;;;;;5059993;28;19943;-75
2023/04/29 10:53:40;;;;;;;;;;;;;;;;;;5064172;28;19912;-75
2023/04/29 10:56:27;;;;;;;;;;;;;;;;;;5035486;28;19927;-75
2023/04/29 10:59:13;;;;;;;;;;;;;;;;;;5080945;28;19943;-74
2023/04/29 11:02:00;;;;;;;;;;;;;;;;;;5083562;28;19927;-74
2023/04/29 11:04:46;;;;;;;;;;;;;;;;;;5091671;28;19924;-75
2023/04/29 11:07:33;;;;;;;;;;;;;;;;;;5081160;28;19927;-74
2023/04/29 11:10:20;;;;;;;;;;;;;;;;;;5088462;28;19920;-74
2023/04/29 11:13:06;;;;;;;;;;;;;;;;;;5083648;28;20398;-74
2023/04/29 11:15:53;;;;;;;;;;;;;;;;;;5080776;28;19916;-74
2023/04/29 11:18:39;;;;;;;;;;;;;;;;;;5078287;28;19947;-75
2023/04/29 11:21:26;;;;;;;;;;;;;;;;;;5085319;28;20405;-75
2023/04/29 11:24:14;;;;;;;;;;;;;;;;;;5081655;28;19928;-75
2023/04/29 11:27:03;;;;;;;;;;;;;;;;;;5081025;28;19916;-75
2023/04/29 11:29:49;;;;;;;;;;;;;;;;;;5081754;28;19920;-75
2023/04/29 11:32:36;;;;;;;;;;;;;;;;;;5084141;28;19927;-75
2023/04/29 11:35:22;;;;;;;;;;;;;;;;;;5081948;28;19924;-75
2023/04/29 11:38:09;;;;;;;;;;;;;;;;;;5065620;28;19927;-75
2023/04/29 11:40:55;;;;;;;;;;;;;;;;;;5081473;28;19922;-74
2023/04/29 11:43:42;;;;;;;;;;;;;;;;;;5060868;28;19932;-76
2023/04/29 11:46:29;;;;;;;;;;;;;;;;;;5083406;28;19920;-76
2023/04/29 11:49:15;;;;;;;;;;;;;;;;;;5080254;28;19927;-76
2023/04/29 11:52:02;;;;;;;;;;;;;;;;;;5071202;28;20346;-76
2023/04/29 11:54:48;;;;;;;;;;;;;;;;;;5076242;28;20384;-77
2023/04/29 11:57:35;;;;;;;;;;;;;;;;;;5070062;28;19916;-78
2023/04/29 12:00:21;;;;;;;;;;;;;;;;;;5081012;28;19924;-74
2023/04/29 12:03:08;;;;;;;;;;;;;;;;;;5078470;28;19979;-76
2023/04/29 12:05:54;;;;;;;;;;;;;;;;;;5080188;28;19930;-78
2023/04/29 12:08:41;;;;;;;;;;;;;;;;;;5081965;28;19931;-77
2023/04/29 12:11:28;;;;;;;;;;;;;;;;;;5082146;28;19928;-76
2023/04/29 12:14:14;;;;;;;;;;;;;;;;;;5077460;28;19932;-76
2023/04/29 12:17:01;;;;;;;;;;;;;;;;;;5079688;28;19976;-75
2023/04/29 12:19:48;;;;;;;;;;;;;;;;;;5082676;28;19923;-74
2023/04/29 12:22:34;;;;;;;;;;;;;;;;;;5085101;28;19920;-74
2023/04/29 12:25:21;;;;;;;;;;;;;;;;;;5079427;28;20748;-75
2023/04/29 12:28:07;;;;;;;;;;;;;;;;;;5082135;28;20284;-76
2023/04/29 12:30:54;;;;;;;;;;;;;;;;;;5080951;28;19927;-75
2023/04/29 12:33:41;;;;;;;;;;;;;;;;;;5083894;28;19934;-75
2023/04/29 12:36:28;;;;;;;;;;;;;;;;;;5081526;28;19952;-74
2023/04/29 12:39:15;;;;;;;;;;;;;;;;;;5080923;28;19923;-75
2023/04/29 12:42:01;;;;;;;;;;;;;;;;;;5058326;28;19920;-75
2023/04/29 12:44:48;;;;;;;;;;;;;;;;;;5047465;28;19928;-75
2023/04/29 12:47:35;;;;;;;;;;;;;;;;;;5075331;28;20366;-74
2023/04/29 12:50:22;;;;;;;;;;;;;;;;;;5077595;28;20461;-75
2023/04/29 12:53:08;;;;;;;;;;;;;;;;;;5071233;28;19932;-75
2023/04/29 12:55:55;;;;;;;;;;;;;;;;;;5073891;28;20493;-75
2023/04/29 12:58:42;;;;;;;;;;;;;;;;;;5082467;28;19924;-76
2023/04/29 13:01:28;;;;;;;;;;;;;;;;;;5083016;28;19920;-75
2023/04/29 13:04:15;;;;;;;;;;;;;;;;;;5079902;28;19934;-75
2023/04/29 13:07:03;;;;;;;;;;;;;;;;;;5080164;28;20339;-75
2023/04/29 13:09:50;;;;;;;;;;;;;;;;;;5082306;28;19920;-76
2023/04/29 13:12:36;;;;;;;;;;;;;;;;;;5092329;28;19920;-79
2023/04/29 13:15:23;;;;;;;;;;;;;;;;;;5084044;28;19925;-75
2023/04/29 13:18:09;;;;;;;;;;;;;;;;;;5068698;28;19922;-75
2023/04/29 13:20:56;;;;;;;;;;;;;;;;;;5078807;28;19939;-75
2023/04/29 13:23:42;;;;;;;;;;;;;;;;;;5080018;28;20291;-75
2023/04/29 13:26:29;;;;;;;;;;;;;;;;;;5079006;28;19916;-75
2023/04/29 13:29:15;;;;;;;;;;;;;;;;;;5076536;28;19916;-75
2023/04/29 13:32:02;;;;;;;;;;;;;;;;;;5068798;28;19912;-75
2023/04/29 13:34:48;;;;;;;;;;;;;;;;;;5080754;28;19947;-75
2023/04/29 13:37:35;;;;;;;;;;;;;;;;;;5082879;28;19920;-75
2023/04/29 13:40:21;;;;;;;;;;;;;;;;;;5071149;28;19920;-74
2023/04/29 13:43:07;;;;;;;;;;;;;;;;;;5058308;28;19912;-74
2023/04/29 13:45:54;;;;;;;;;;;;;;;;;;5072725;28;19930;-75
2023/04/29 13:48:40;;;;;;;;;;;;;;;;;;5060157;28;19926;-74
2023/04/29 13:51:27;;;;;;;;;;;;;;;;;;5081532;28;19932;-75
2023/04/29 13:54:13;;;;;;;;;;;;;;;;;;5079076;28;21405;-74
2023/04/29 13:57:02;;;;;;;;;;;;;;;;;;5067851;28;19942;-74
2023/04/29 13:59:51;;;;;;;;;;;;;;;;;;5082723;28;20522;-75
2023/04/29 14:02:38;;;;;;;;;;;;;;;;;;5086416;28;19931;-75
2023/04/29 14:05:24;;;;;;;;;;;;;;;;;;5066680;28;19928;-75
2023/04/29 14:08:11;;;;;;;;;;;;;;;;;;5062395;28;19916;-75
2023/04/29 14:10:57;;;;;;;;;;;;;;;;;;5073334;28;20394;-75
2023/04/29 14:13:44;;;;;;;;;;;;;;;;;;5085490;28;19930;-75
2023/04/29 14:16:30;;;;;;;;;;;;;;;;;;5088000;28;19924;-74
2023/04/29 14:19:17;;;;;;;;;;;;;;;;;;5082636;28;19912;-74
2023/04/29 14:22:03;;;;;;;;;;;;;;;;;;5070032;28;19912;-74
2023/04/29 14:24:50;;;;;;;;;;;;;;;;;;5080075;28;19935;-76
2023/04/29 14:27:37;;;;;;;;;;;;;;;;;;5081499;28;19920;-75
2023/04/29 14:30:23;;;;;;;;;;;;;;;;;;5085276;28;19987;-78
2023/04/29 14:33:10;;;;;;;;;;;;;;;;;;5085705;28;19924;-79
2023/04/29 14:35:56;;;;;;;;;;;;;;;;;;5061874;28;20621;-79
2023/04/29 14:38:43;;;;;;;;;;;;;;;;;;5087083;28;19922;-79
2023/04/29 14:41:29;;;;;;;;;;;;;;;;;;5076095;28;20487;-80
2023/04/29 14:44:16;;;;;;;;;;;;;;;;;;5083586;28;19919;-79
2023/04/29 14:47:02;;;;;;;;;;;;;;;;;;5065596;28;19923;-78
2023/04/29 14:49:49;;;;;;;;;;;;;;;;;;5083296;28;19920;-78
2023/04/29 14:52:36;;;;;;;;;;;;;;;;;;5079237;28;20265;-78
2023/04/29 14:55:22;;;;;;;;;;;;;;;;;;5081225;28;19966;-78
2023/04/29 14:58:09;;;;;;;;;;;;;;;;;;5057008;28;19923;-78
2023/04/29 15:00:55;;;;;;;;;;;;;;;;;;5084047;28;19924;-78
2023/04/29 15:03:42;;;;;;;;;;;;;;;;;;5083286;28;19924;-78
2023/04/29 15:06:28;;;;;;;;;;;;;;;;;;5082813;28;19916;-78
2023/04/29 15:09:15;;;;;;;;;;;;;;;;;;5083096;28;19927;-78
2023/04/29 15:12:03;;;;;;;;;;;;;;;;;;5084847;28;19931;-78
2023/04/29 15:14:51;;;;;;;;;;;;;;;;;;5080091;28;20477;-78
2023/04/29 15:17:37;;;;;;;;;;;;;;;;;;5079975;28;19920;-78
2023/04/29 15:20:24;;;;;;;;;;;;;;;;;;5081568;28;19927;-79
2023/04/29 15:23:10;;;;;;;;;;;;;;;;;;5083728;28;20283;-79
2023/04/29 15:25:57;;;;;;;;;;;;;;;;;;5085043;28;19974;-79
2023/04/29 15:28:44;;;;;;;;;;;;;;;;;;5085523;28;19921;-79
2023/04/29 15:31:31;;;;;;;;;;;;;;;;;;5083437;28;19916;-79
2023/04/29 15:34:17;;;;;;;;;;;;;;;;;;5061826;28;19932;-78
2023/04/29 15:37:04;;;;;;;;;;;;;;;;;;5077994;28;19928;-80
2023/04/29 15:39:50;;;;;;;;;;;;;;;;;;5079480;28;19920;-79
2023/04/29 15:42:37;;;;;;;;;;;;;;;;;;5079581;28;19920;-81
2023/04/29 15:45:23;;;;;;;;;;;;;;;;;;5080924;28;19928;-80
2023/04/29 15:48:10;;;;;;;;;;;;;;;;;;5075589;28;19920;-80
2023/04/29 15:50:56;;;;;;;;;;;;;;;;;;5081026;28;19934;-81
2023/04/29 15:53:43;;;;;;;;;;;;;;;;;;5087770;28;19938;-80
2023/04/29 15:56:29;;;;;;;;;;;;;;;;;;5078625;28;19916;-80
2023/04/29 15:59:17;;;;;;;;;;;;;;;;;;5072012;28;19942;-81
2023/04/29 16:02:09;;;;;;;;;;;;;;;;;;5070658;28;19951;-82
2023/04/29 16:04:55;;;;;;;;;;;;;;;;;;5074169;28;19920;-81
2023/04/29 16:07:42;;;;;;;;;;;;;;;;;;5082249;28;19955;-81
2023/04/29 16:10:28;;;;;;;;;;;;;;;;;;5085355;28;19924;-81
2023/04/29 16:13:15;;;;;;;;;;;;;;;;;;5070008;28;19924;-79
2023/04/29 16:16:01;;;;;;;;;;;;;;;;;;5066138;28;19927;-80
2023/04/29 16:18:48;;;;;;;;;;;;;;;;;;5079704;28;19927;-78
2023/04/29 16:21:34;;;;;;;;;;;;;;;;;;5081075;28;19912;-78
2023/04/29 16:24:20;;;;;;;;;;;;;;;;;;5075732;28;19928;-79
2023/04/29 16:27:07;;;;;;;;;;;;;;;;;;5055820;28;19923;-78
2023/04/29 16:29:54;;;;;;;;;;;;;;;;;;5078240;28;19919;-79
2023/04/29 16:32:41;;;;;;;;;;;;;;;;;;5071259;28;19919;-79
2023/04/29 16:35:29;;;;;;;;;;;;;;;;;;5079243;28;19962;-79
2023/04/29 16:38:16;;;;;;;;;;;;;;;;;;5081564;28;19920;-78
2023/04/29 16:41:03;;;;;;;;;;;;;;;;;;5080294;28;19920;-78
2023/04/29 16:43:49;;;;;;;;;;;;;;;;;;5072918;28;19935;-76
2023/04/29 16:46:36;;;;;;;;;;;;;;;;;;5085366;28;19924;-76
2023/04/29 16:49:22;;;;;;;;;;;;;;;;;;5057033;28;19932;-77
2023/04/29 16:52:09;;;;;;;;;;;;;;;;;;5080830;28;19963;-79
2023/04/29 16:54:55;;;;;;;;;;;;;;;;;;5083130;28;20015;-77
2023/04/29 16:57:42;;;;;;;;;;;;;;;;;;5081861;28;20383;-77
2023/04/29 17:00:29;;;;;;;;;;;;;;;;;;5080824;28;20374;-78
2023/04/29 17:03:15;;;;;;;;;;;;;;;;;;5088148;28;19916;-75
2023/04/29 17:06:02;;;;;;;;;;;;;;;;;;5069638;28;19963;-79
2023/04/29 17:08:48;;;;;;;;;;;;;;;;;;5059520;28;20583;-78
2023/04/29 17:11:34;;;;;;;;;;;;;;;;;;5066742;28;19920;-78
2023/04/29 17:14:21;;;;;;;;;;;;;;;;;;5054029;28;19917;-79
2023/04/29 17:17:08;;;;;;;;;;;;;;;;;;5065849;28;19948;-79
2023/04/29 17:19:55;;;;;;;;;;;;;;;;;;5076736;28;19994;-79
2023/04/29 17:22:41;;;;;;;;;;;;;;;;;;5082046;28;19923;-80
2023/04/29 17:25:28;;;;;;;;;;;;;;;;;;5077343;28;19928;-79
2023/04/29 17:28:14;;;;;;;;;;;;;;;;;;5067091;28;19912;-79
2023/04/29 17:31:01;;;;;;;;;;;;;;;;;;5078504;28;19920;-79
2023/04/29 17:33:54;;;;;;;;;;;;;;;;;;5065965;28;19940;-80
2023/04/29 17:36:40;;;;;;;;;;;;;;;;;;5060982;28;19920;-80
2023/04/29 17:39:27;;;;;;;;;;;;;;;;;;5060174;28;19917;-79
2023/04/29 17:42:14;;;;;;;;;;;;;;;;;;5056480;28;19942;-79
2023/04/29 17:45:01;;;;;;;;;;;;;;;;;;5063437;28;19940;-79
2023/04/29 17:47:47;;;;;;;;;;;;;;;;;;5061682;28;19928;-79
2023/04/29 17:50:33;;;;;;;;;;;;;;;;;;5047414;28;20292;-78
2023/04/29 17:53:20;;;;;;;;;;;;;;;;;;5046666;28;20403;-78
2023/04/29 17:56:07;;;;;;;;;;;;;;;;;;5081633;28;20517;-79
2023/04/29 17:58:53;;;;;;;;;;;;;;;;;;5079184;28;19916;-79
2023/04/29 18:01:40;;;;;;;;;;;;;;;;;;5095425;28;19920;-79
2023/04/29 18:04:26;;;;;;;;;;;;;;;;;;5081855;28;19920;-79
2023/04/29 18:07:13;;;;;;;;;;;;;;;;;;5082325;28;19924;-78
2023/04/29 18:09:59;;;;;;;;;;;;;;;;;;5078094;28;19931;-78
2023/04/29 18:12:46;;;;;;;;;;;;;;;;;;5074420;28;19920;-79
2023/04/29 18:15:32;;;;;;;;;;;;;;;;;;5077908;28;20522;-78
2023/04/29 18:18:19;;;;;;;;;;;;;;;;;;5074150;28;19916;-77
2023/04/29 18:21:08;;;;;;;;;;;;;;;;;;5079917;28;20466;-78
2023/04/29 18:23:54;;;;;;;;;;;;;;;;;;5084863;28;19930;-78
2023/04/29 18:26:41;;;;;;;;;;;;;;;;;;5094037;28;20911;-76
2023/04/29 18:29:27;;;;;;;;;;;;;;;;;;5063866;28;19924;-77
2023/04/29 18:32:14;;;;;;;;;;;;;;;;;;5084750;28;19927;-77
2023/04/29 18:35:01;;;;;;;;;;;;;;;;;;5080489;28;19938;-81
2023/04/29 18:37:47;;;;;;;;;;;;;;;;;;5075900;28;20382;-78
2023/04/29 18:40:35;;;;;;;;;;;;;;;;;;5084482;28;19912;-78
2023/04/29 18:43:27;;;;;;;;;;;;;;;;;;5081397;28;19920;-78
2023/04/29 18:46:14;;;;;;;;;;;;;;;;;;5081995;28;19963;-77
2023/04/29 18:49:00;;;;;;;;;;;;;;;;;;5084113;28;19935;-77
2023/04/29 18:51:47;;;;;;;;;;;;;;;;;;5074504;28;19927;-77
2023/04/29 18:54:33;;;;;;;;;;;;;;;;;;5083256;28;19917;-77
2023/04/29 18:57:20;;;;;;;;;;;;;;;;;;5085641;28;19924;-76